createdAt,value
2019-06-08T00:01:22.826Z,73.73
2019-06-08T00:03:52.643Z,76.01
2019-06-08T00:06:23.094Z,75.98
2019-06-08T00:08:52.812Z,75.70
2019-06-08T00:11:23.442Z,75.23
2019-06-08T00:13:53.277Z,75.04
2019-06-08T00:16:23.774Z,75.37
2019-06-08T00:18:53.684Z,74.59
2019-06-08T00:21:24.068Z,76.89
2019-06-08T00:23:53.918Z,74.26
2019-06-08T00:26:24.367Z,75.64
2019-06-08T00:28:54.259Z,75.13
2019-06-08T00:31:24.239Z,75.48
2019-06-08T00:33:53.873Z,74.62
2019-06-08T00:36:25.072Z,74.81
2019-06-08T00:38:54.807Z,75.96
2019-06-08T00:41:25.426Z,74.79
2019-06-08T00:43:55.090Z,75.42
2019-06-08T00:46:25.729Z,75.17
2019-06-08T00:48:55.527Z,78.83
2019-06-08T00:51:25.554Z,77.70
2019-06-08T00:53:55.490Z,75.48
2019-06-08T00:56:26.017Z,75.52
2019-06-08T00:58:55.767Z,76.82
2019-06-08T01:01:28.035Z,76.86
2019-06-08T01:03:56.735Z,76.96
2019-06-08T01:06:27.519Z,74.96
2019-06-08T01:08:57.398Z,74.59
2019-06-08T01:11:27.132Z,74.92
2019-06-08T01:13:57.469Z,73.31
2019-06-08T01:16:27.233Z,75.14
2019-06-08T01:18:56.851Z,76.66
2019-06-08T01:21:27.722Z,76.16
2019-06-08T01:23:57.575Z,76.04
2019-06-08T01:26:28.199Z,75.72
2019-06-08T01:28:57.878Z,74.58
2019-06-08T01:31:28.360Z,75.53
2019-06-08T01:33:58.221Z,76.56
2019-06-08T01:36:29.063Z,75.61
2019-06-08T01:38:58.813Z,75.28
2019-06-08T01:41:29.540Z,77.82
2019-06-08T01:43:59.318Z,76.80
2019-06-08T01:46:30.223Z,77.20
2019-06-08T01:48:59.981Z,76.72
2019-06-08T01:51:30.565Z,78.92
2019-06-08T01:54:00.240Z,79.45
2019-06-08T01:56:31.150Z,78.12
2019-06-08T01:59:00.870Z,77.95
2019-06-08T02:01:31.979Z,76.77
2019-06-08T02:04:02.054Z,77.01
2019-06-08T02:06:32.460Z,76.15
2019-06-08T02:09:03.110Z,77.31
2019-06-08T02:11:33.095Z,76.97
2019-06-08T02:14:02.889Z,77.22
2019-06-08T02:16:33.335Z,77.10
2019-06-08T02:19:03.283Z,78.24
2019-06-08T02:21:33.117Z,80.16
2019-06-08T02:24:02.943Z,80.30
2019-06-08T02:26:35.199Z,79.29
2019-06-08T02:29:04.471Z,78.93
2019-06-08T02:31:35.065Z,77.32
2019-06-08T02:34:06.386Z,77.70
2019-06-08T02:36:37.854Z,77.46
2019-06-08T02:39:09.283Z,79.09
2019-06-08T02:41:40.065Z,79.95
2019-06-08T02:44:09.960Z,76.71
2019-06-08T02:46:40.385Z,77.86
2019-06-08T02:49:10.615Z,77.53
2019-06-08T02:51:41.206Z,78.23
2019-06-08T02:54:12.715Z,76.93
2019-06-08T02:56:43.673Z,75.54
2019-06-08T02:59:15.158Z,75.01
2019-06-08T03:01:47.942Z,76.85
2019-06-08T03:04:19.139Z,78.79
2019-06-08T03:06:51.211Z,79.43
2019-06-08T03:09:24.318Z,79.01
2019-06-08T03:11:56.825Z,78.87
2019-06-08T03:14:30.952Z,80.39
2019-06-08T03:17:00.791Z,81.19
2019-06-08T03:19:31.281Z,79.36
2019-06-08T03:22:01.395Z,79.42
2019-06-08T03:24:32.380Z,79.84
2019-06-08T03:27:02.702Z,77.78
2019-06-08T03:29:32.540Z,76.95
2019-06-08T03:32:02.415Z,76.66
2019-06-08T03:34:35.617Z,76.77
2019-06-08T03:37:03.780Z,77.02
2019-06-08T03:39:35.249Z,78.25
2019-06-08T03:42:05.152Z,79.88
2019-06-08T03:44:36.151Z,79.70
2019-06-08T03:47:06.115Z,80.77
2019-06-08T03:49:43.061Z,80.78
2019-06-08T03:52:07.534Z,79.69
2019-06-08T03:54:38.875Z,76.94
2019-06-08T03:57:08.903Z,75.87
2019-06-08T03:59:40.773Z,74.20
2019-06-08T04:02:10.456Z,72.33
2019-06-08T04:04:41.753Z,71.71
2019-06-08T04:07:11.887Z,69.05
2019-06-08T04:09:41.835Z,66.68
2019-06-08T04:12:11.781Z,64.88
2019-06-08T04:14:42.155Z,63.22
2019-06-08T04:17:12.834Z,63.43
2019-06-08T04:20:02.813Z,61.40
2019-06-08T04:22:14.465Z,60.99
2019-06-08T04:24:45.127Z,61.04
2019-06-08T04:27:16.012Z,59.98
2019-06-08T04:29:46.166Z,59.89
2019-06-08T04:32:16.253Z,59.05
2019-06-08T04:34:47.442Z,60.18
2019-06-08T04:37:17.678Z,59.39
2019-06-08T04:39:47.729Z,57.57
2019-06-08T04:42:17.758Z,57.68
2019-06-08T04:44:49.413Z,56.88
2019-06-08T04:47:19.537Z,56.95
2019-06-08T04:49:49.468Z,56.80
2019-06-08T04:52:19.331Z,55.43
2019-06-08T04:54:50.069Z,56.17
2019-06-08T04:57:19.899Z,56.77
2019-06-08T04:59:50.391Z,56.72
2019-06-08T05:02:20.507Z,56.00
2019-06-08T05:04:50.262Z,54.51
2019-06-08T05:07:20.166Z,54.77
2019-06-08T05:09:49.904Z,54.73
2019-06-08T05:12:19.760Z,54.52
2019-06-08T05:14:49.438Z,54.34
2019-06-08T05:17:19.145Z,56.25
2019-06-08T05:19:50.279Z,55.51
2019-06-08T05:22:20.254Z,54.70
2019-06-08T05:24:50.264Z,52.45
2019-06-08T05:27:20.104Z,51.65
2019-06-08T05:29:50.172Z,51.69
2019-06-08T05:32:20.130Z,51.89
2019-06-08T05:34:49.877Z,52.67
2019-06-08T05:37:19.843Z,51.02
2019-06-08T05:39:49.980Z,52.24
2019-06-08T05:42:20.017Z,50.50
2019-06-08T05:44:50.235Z,48.77
2019-06-08T05:47:20.161Z,50.02
2019-06-08T05:49:50.051Z,48.00
2019-06-08T05:52:19.901Z,50.90
2019-06-08T05:54:50.161Z,48.70
2019-06-08T05:57:19.938Z,50.42
2019-06-08T05:59:50.314Z,50.67
2019-06-08T06:02:20.291Z,49.94
2019-06-08T06:04:52.237Z,50.01
2019-06-08T06:07:23.344Z,49.83
2019-06-08T06:09:53.094Z,50.87
2019-06-08T06:12:22.793Z,53.47
2019-06-08T06:14:52.551Z,53.09
2019-06-08T06:17:22.264Z,54.65
2019-06-08T06:19:51.902Z,53.94
2019-06-08T06:22:21.762Z,54.98
2019-06-08T06:24:51.875Z,55.11
2019-06-08T06:27:21.712Z,57.49
2019-06-08T06:29:52.039Z,56.73
2019-06-08T06:32:21.948Z,57.94
2019-06-08T06:34:52.151Z,56.35
2019-06-08T06:37:22.413Z,56.04
2019-06-08T06:39:52.348Z,55.94
2019-06-08T06:42:24.744Z,55.43
2019-06-08T06:44:53.724Z,56.45
2019-06-08T06:47:23.346Z,55.50
2019-06-08T06:49:52.990Z,54.51
2019-06-08T06:52:22.730Z,54.83
2019-06-08T06:54:53.252Z,54.38
2019-06-08T06:57:24.827Z,52.42
2019-06-08T06:59:54.652Z,51.60
2019-06-08T07:02:25.248Z,51.18
2019-06-08T07:04:56.110Z,50.73
2019-06-08T07:07:26.003Z,51.68
2019-06-08T07:09:55.630Z,53.72
2019-06-08T07:12:25.318Z,53.34
2019-06-08T07:14:55.458Z,53.07
2019-06-08T07:17:25.243Z,52.07
2019-06-08T07:19:54.827Z,52.29
2019-06-08T07:22:24.675Z,53.76
2019-06-08T07:24:54.643Z,52.68
2019-06-08T07:27:24.292Z,52.40
2019-06-08T07:29:54.746Z,54.01
2019-06-08T07:32:24.557Z,55.27
2019-06-08T07:34:55.288Z,55.41
2019-06-08T07:37:25.204Z,56.00
2019-06-08T07:39:56.069Z,56.39
2019-06-08T07:42:26.020Z,55.33
2019-06-08T07:44:55.737Z,55.29
2019-06-08T07:47:25.286Z,53.19
2019-06-08T07:49:55.616Z,51.35
2019-06-08T07:52:25.409Z,50.86
2019-06-08T07:54:55.040Z,50.69
2019-06-08T07:57:24.660Z,48.96
2019-06-08T07:59:54.652Z,50.00
2019-06-08T08:02:25.932Z,47.57
2019-06-08T08:04:56.768Z,48.39
2019-06-08T08:07:27.383Z,47.64
2019-06-08T08:09:57.155Z,48.33
2019-06-08T08:12:27.154Z,47.35
2019-06-08T08:14:58.036Z,46.78
2019-06-08T08:17:28.662Z,47.37
2019-06-08T08:19:59.381Z,46.08
2019-06-08T08:22:29.833Z,44.96
2019-06-08T08:25:04.649Z,46.40
2019-06-08T08:27:31.964Z,46.96
2019-06-08T08:30:02.377Z,45.52
2019-06-08T08:32:33.654Z,43.94
2019-06-08T08:35:03.616Z,43.80
2019-06-08T08:37:33.710Z,44.79
2019-06-08T08:40:03.536Z,44.79
2019-06-08T08:42:33.304Z,45.77
2019-06-08T08:45:05.477Z,46.15
2019-06-08T08:47:34.486Z,46.31
2019-06-08T08:50:07.454Z,47.04
2019-06-08T08:52:40.532Z,47.73
2019-06-08T08:55:09.253Z,48.74
2019-06-08T08:57:41.659Z,49.21
2019-06-08T09:00:11.527Z,48.46
2019-06-08T09:02:41.316Z,47.98
2019-06-08T09:05:11.500Z,48.34
2019-06-08T09:07:41.271Z,49.23
2019-06-08T09:10:11.782Z,49.44
2019-06-08T09:12:41.567Z,47.33
2019-06-08T09:15:11.490Z,45.73
2019-06-08T09:17:41.029Z,45.93
2019-06-08T09:20:15.376Z,43.68
2019-06-08T09:22:53.899Z,43.24
2019-06-08T09:25:13.896Z,44.51
2019-06-08T09:27:43.781Z,44.79
2019-06-08T09:30:13.620Z,46.21
2019-06-08T09:32:43.279Z,43.94
2019-06-08T09:35:13.258Z,44.76
2019-06-08T09:37:42.884Z,44.23
2019-06-08T09:40:12.739Z,44.60
2019-06-08T09:42:42.653Z,46.39
2019-06-08T09:45:13.160Z,46.51
2019-06-08T09:47:42.921Z,47.26
2019-06-08T09:50:13.340Z,47.34
2019-06-08T09:52:43.012Z,45.87
2019-06-08T09:55:13.001Z,45.17
2019-06-08T09:57:42.698Z,46.00
2019-06-08T10:00:18.284Z,44.66
2019-06-08T10:02:44.613Z,43.80
2019-06-08T10:05:14.701Z,42.08
2019-06-08T10:07:44.369Z,41.03
2019-06-08T10:10:14.641Z,42.09
2019-06-08T10:12:44.278Z,43.06
2019-06-08T10:15:14.397Z,41.63
2019-06-08T10:17:44.175Z,43.42
2019-06-08T10:20:14.549Z,46.15
2019-06-08T10:22:44.250Z,47.89
2019-06-08T10:25:14.127Z,49.73
2019-06-08T10:27:43.769Z,50.32
2019-06-08T10:30:13.979Z,50.34
2019-06-08T10:32:50.408Z,50.25
2019-06-08T10:35:20.620Z,46.84
2019-06-08T10:37:51.207Z,45.66
2019-06-08T10:40:21.456Z,45.30
2019-06-08T10:42:51.173Z,44.12
2019-06-08T10:45:21.284Z,44.85
2019-06-08T10:47:51.267Z,44.01
2019-06-08T10:50:22.144Z,44.71
2019-06-08T10:52:52.813Z,43.53
2019-06-08T10:55:22.656Z,44.35
2019-06-08T10:57:52.550Z,42.74
2019-06-08T11:00:27.941Z,43.55
2019-06-08T11:03:01.335Z,45.60
2019-06-08T11:05:29.398Z,46.39
2019-06-08T11:08:00.594Z,45.48
2019-06-08T11:10:30.663Z,44.98
2019-06-08T11:13:05.116Z,43.94
2019-06-08T11:15:31.847Z,43.96
2019-06-08T11:18:04.579Z,42.36
2019-06-08T11:20:32.930Z,43.48
2019-06-08T11:23:03.631Z,42.88
2019-06-08T11:25:33.910Z,41.74
2019-06-08T11:28:03.839Z,42.26
2019-06-08T11:30:34.169Z,40.86
2019-06-08T11:33:03.982Z,41.14
2019-06-08T11:35:34.329Z,41.19
2019-06-08T11:38:05.806Z,40.89
2019-06-08T11:40:37.892Z,40.81
2019-06-08T11:43:08.609Z,42.00
2019-06-08T11:45:39.212Z,42.95
2019-06-08T11:48:09.089Z,43.24
2019-06-08T11:50:43.125Z,43.29
2019-06-08T11:53:14.785Z,42.64
2019-06-08T11:55:45.124Z,39.82
2019-06-08T11:58:19.361Z,39.48
2019-06-08T12:01:02.841Z,40.72
2019-06-08T12:03:31.661Z,41.70
2019-06-08T12:06:02.150Z,42.02
2019-06-08T12:08:32.045Z,41.90
2019-06-08T12:11:03.764Z,41.63
2019-06-08T12:13:33.037Z,43.38
2019-06-08T12:16:03.131Z,44.76
2019-06-08T12:18:32.832Z,46.41
2019-06-08T12:21:03.735Z,47.36
2019-06-08T12:23:33.595Z,48.98
2019-06-08T12:26:04.075Z,49.01
2019-06-08T12:28:33.749Z,48.52
2019-06-08T12:31:04.619Z,47.04
2019-06-08T12:33:34.419Z,45.73
2019-06-08T12:36:05.239Z,45.07
2019-06-08T12:38:38.022Z,45.20
2019-06-08T12:41:09.627Z,44.87
2019-06-08T12:43:39.306Z,45.45
2019-06-08T12:46:13.417Z,46.53
2019-06-08T12:48:43.476Z,46.66
2019-06-08T12:51:14.750Z,46.51
2019-06-08T12:53:44.950Z,46.63
2019-06-08T12:56:14.844Z,45.82
2019-06-08T12:58:47.610Z,44.57
2019-06-08T13:01:18.657Z,45.56
2019-06-08T13:03:48.628Z,45.72
2019-06-08T13:06:18.537Z,45.91
2019-06-08T13:08:49.755Z,46.50
2019-06-08T13:11:21.287Z,47.06
2019-06-08T13:13:51.181Z,46.77
2019-06-08T13:16:24.246Z,45.66
2019-06-08T13:18:52.405Z,45.82
2019-06-08T13:21:34.191Z,45.70
2019-06-08T13:23:53.515Z,45.61
2019-06-08T13:26:27.897Z,45.90
2019-06-08T13:28:54.925Z,45.00
2019-06-08T13:31:24.926Z,45.20
2019-06-08T13:33:54.704Z,44.95
2019-06-08T13:36:27.223Z,45.51
2019-06-08T13:38:56.029Z,45.23
2019-06-08T13:41:29.044Z,45.83
2019-06-08T13:43:58.060Z,44.07
2019-06-08T13:46:28.349Z,44.27
2019-06-08T13:48:58.678Z,44.92
2019-06-08T13:51:29.203Z,44.13
2019-06-08T13:53:59.018Z,43.86
2019-06-08T13:56:28.736Z,43.77
2019-06-08T13:58:58.386Z,45.04
2019-06-08T14:01:30.765Z,44.33
2019-06-08T14:03:59.748Z,44.84
2019-06-08T14:06:29.638Z,44.63
2019-06-08T14:09:00.910Z,44.34
2019-06-08T14:11:30.560Z,44.00
2019-06-08T14:14:01.199Z,43.45
2019-06-08T14:16:31.412Z,42.61
2019-06-08T14:19:01.265Z,42.77
2019-06-08T14:21:38.643Z,42.46
2019-06-08T14:24:02.297Z,41.64
2019-06-08T14:26:31.933Z,41.44
2019-06-08T14:29:01.909Z,41.95
2019-06-08T14:31:32.100Z,42.00
2019-06-08T14:34:01.955Z,43.24
2019-06-08T14:36:31.526Z,42.39
2019-06-08T14:39:02.377Z,43.25
2019-06-08T14:41:32.769Z,43.16
2019-06-08T14:44:02.477Z,42.66
2019-06-08T14:46:32.172Z,43.60
2019-06-08T14:49:01.801Z,44.39
2019-06-08T14:51:50.067Z,45.08
2019-06-08T14:54:26.234Z,45.09
2019-06-08T14:56:52.858Z,44.85
2019-06-08T14:59:23.870Z,44.68
2019-06-08T15:01:54.007Z,43.34
2019-06-08T15:04:27.093Z,43.53
2019-06-08T15:06:55.083Z,43.84
2019-06-08T15:09:25.565Z,44.87
2019-06-08T15:11:57.966Z,42.65
2019-06-08T15:14:29.280Z,43.69
2019-06-08T15:16:59.082Z,43.20
2019-06-08T15:19:30.860Z,42.93
2019-06-08T15:22:00.610Z,42.84
2019-06-08T15:24:32.277Z,42.71
2019-06-08T15:27:01.759Z,41.58
2019-06-08T15:29:32.790Z,41.68
2019-06-08T15:32:02.720Z,41.48
2019-06-08T15:34:33.233Z,41.21
2019-06-08T15:37:03.253Z,41.58
2019-06-08T15:39:34.125Z,41.16
2019-06-08T15:42:04.161Z,41.43
2019-06-08T16:00:10.330Z,41.73
2019-06-08T16:02:40.318Z,42.10
2019-06-08T16:05:10.087Z,41.71
2019-06-08T16:07:39.749Z,41.78
2019-06-08T16:10:10.237Z,41.23
2019-06-08T16:12:47.725Z,41.43
2019-06-08T16:15:17.343Z,41.83
2019-06-08T16:17:47.135Z,42.48
2019-06-08T16:20:36.964Z,43.00
2019-06-08T16:23:07.584Z,42.62
2019-06-08T16:25:38.849Z,42.27
2019-06-08T16:28:08.494Z,42.25
2019-06-08T16:30:39.350Z,42.41
2019-06-08T16:33:13.086Z,42.58
2019-06-08T16:35:43.901Z,43.34
2019-06-08T16:38:13.507Z,41.82
2019-06-08T16:40:43.628Z,42.15
2019-06-08T16:43:13.840Z,42.91
2019-06-08T16:45:43.458Z,42.75
2019-06-08T16:48:13.238Z,42.67
2019-06-08T16:50:42.995Z,42.57
2019-06-08T16:53:12.917Z,43.30
2019-06-08T16:55:42.834Z,43.30
2019-06-08T16:58:12.520Z,42.65
2019-06-08T17:00:42.481Z,42.62
2019-06-08T17:03:12.267Z,42.46
2019-06-08T17:05:42.192Z,41.88
2019-06-08T17:08:11.916Z,42.28
2019-06-08T17:10:42.167Z,43.52
2019-06-08T17:13:13.110Z,42.35
2019-06-08T17:15:42.855Z,42.52
2019-06-08T17:18:12.499Z,42.63
2019-06-08T17:20:42.771Z,42.62
2019-06-08T17:23:12.770Z,42.69
2019-06-08T17:25:42.475Z,42.17
2019-06-08T17:28:12.134Z,42.75
2019-06-08T17:30:41.776Z,42.43
2019-06-08T17:33:11.398Z,44.13
2019-06-08T17:35:42.350Z,42.93
2019-06-08T17:38:12.178Z,43.21
2019-06-08T17:40:42.402Z,43.67
2019-06-08T17:43:12.233Z,43.46
2019-06-08T17:45:42.949Z,43.09
2019-06-08T17:48:12.933Z,43.37
2019-06-08T17:50:43.041Z,43.29
2019-06-08T17:53:12.872Z,43.24
2019-06-08T17:55:43.906Z,42.47
2019-06-08T17:58:13.569Z,44.03
2019-06-08T18:00:45.109Z,43.72
2019-06-08T18:03:17.242Z,48.55
2019-06-08T18:05:48.663Z,47.82
2019-06-08T18:08:18.619Z,48.98
2019-06-08T18:10:48.420Z,47.04
2019-06-08T18:13:18.617Z,48.13
2019-06-08T18:15:49.307Z,51.19
2019-06-08T18:18:19.048Z,48.05
2019-06-08T18:20:51.944Z,47.83
2019-06-08T18:23:20.143Z,47.50
2019-06-08T18:25:50.311Z,47.75
2019-06-08T18:28:20.055Z,48.27
2019-06-08T18:30:49.792Z,48.50
2019-06-08T18:33:19.775Z,51.14
2019-06-08T18:35:49.664Z,49.93
2019-06-08T18:38:21.287Z,49.88
2019-06-08T18:40:51.073Z,51.08
2019-06-08T18:43:22.276Z,51.26
2019-06-08T18:45:51.893Z,50.35
2019-06-08T18:48:22.202Z,51.28
2019-06-08T18:50:52.017Z,52.59
2019-06-08T18:53:21.709Z,51.38
2019-06-08T18:55:51.531Z,51.77
2019-06-08T18:58:24.924Z,55.05
2019-06-08T19:00:53.196Z,51.67
2019-06-08T19:03:22.924Z,54.98
2019-06-08T19:05:53.329Z,55.16
2019-06-08T19:08:23.816Z,54.71
2019-06-08T19:10:53.526Z,55.35
2019-06-08T19:13:23.365Z,55.07
2019-06-08T19:15:53.265Z,56.39
2019-06-08T19:18:22.997Z,56.28
2019-06-08T19:20:53.538Z,56.46
2019-06-08T19:23:23.362Z,56.56
2019-06-08T19:25:53.024Z,55.85
2019-06-08T19:28:35.954Z,56.30
2019-06-08T19:30:58.281Z,57.50
2019-06-08T19:33:28.300Z,57.55
2019-06-08T19:36:02.857Z,57.69
2019-06-08T19:38:32.395Z,56.67
2019-06-08T19:41:04.917Z,57.53
2019-06-08T19:43:35.006Z,57.42
2019-06-08T19:46:07.242Z,57.23
2019-06-08T19:48:39.626Z,58.01
2019-06-08T19:51:12.127Z,58.37
2019-06-08T19:53:46.572Z,59.48
2019-06-08T19:56:21.486Z,59.19
2019-06-08T19:59:03.061Z,58.45
2019-06-08T20:01:30.994Z,58.14
2019-06-08T20:04:02.105Z,59.39
2019-06-08T20:06:38.006Z,59.60
2019-06-08T20:09:10.269Z,58.55
2019-06-08T20:11:49.442Z,59.58
2019-06-08T20:14:33.880Z,60.44
2019-06-08T20:17:04.370Z,59.74
2019-06-08T20:19:37.389Z,59.65
2019-06-08T20:22:09.910Z,59.97
2019-06-08T20:24:38.811Z,60.33
2019-06-08T20:27:10.298Z,60.30
2019-06-08T20:29:43.331Z,59.63
2019-06-08T20:32:13.633Z,60.97
2019-06-08T20:34:44.550Z,60.93
2019-06-08T20:37:17.527Z,62.65
2019-06-08T20:39:59.364Z,61.82
2019-06-08T20:42:21.344Z,60.83
2019-06-08T20:44:51.982Z,60.78
2019-06-08T20:47:22.867Z,60.25
2019-06-08T20:49:53.444Z,61.78
2019-06-08T20:52:23.251Z,59.91
2019-06-08T20:54:53.549Z,59.61
2019-06-08T20:57:23.831Z,60.34
2019-06-08T20:59:54.053Z,60.16
2019-06-08T21:02:25.217Z,61.74
2019-06-08T21:04:56.216Z,61.86
2019-06-08T21:07:28.037Z,63.20
2019-06-08T21:09:58.096Z,63.18
2019-06-08T21:12:31.090Z,63.00
2019-06-08T21:15:00.688Z,63.16
2019-06-08T21:17:30.565Z,63.64
2019-06-08T21:20:00.300Z,64.35
2019-06-08T21:22:30.146Z,64.79
2019-06-08T21:25:00.262Z,64.24
2019-06-08T21:27:30.059Z,63.09
2019-06-08T21:30:06.705Z,62.98
2019-06-08T21:32:31.028Z,63.71
2019-06-08T21:35:01.533Z,65.35
2019-06-08T21:37:31.104Z,64.97
2019-06-08T21:40:03.687Z,64.76
2019-06-08T21:42:32.152Z,65.17
2019-06-08T21:45:03.956Z,64.47
2019-06-08T21:47:32.980Z,65.22
2019-06-08T21:50:02.663Z,65.36
2019-06-08T21:52:32.196Z,66.41
2019-06-08T21:55:01.759Z,66.88
2019-06-08T21:57:31.439Z,67.19
2019-06-08T22:00:19.209Z,69.17
2019-06-08T22:02:32.393Z,68.51
2019-06-08T22:05:04.685Z,66.82
2019-06-08T22:07:33.723Z,67.87
2019-06-08T22:10:07.238Z,67.47
2019-06-08T22:12:39.815Z,67.29
2019-06-08T22:15:11.665Z,67.58
2019-06-08T22:17:41.315Z,67.13
2019-06-08T22:20:11.256Z,67.73
2019-06-08T22:22:40.854Z,67.44
2019-06-08T22:25:12.227Z,67.63
2019-06-08T22:27:41.780Z,67.96
2019-06-08T22:30:22.818Z,68.68
2019-06-08T22:32:43.157Z,69.00
2019-06-08T22:35:12.829Z,71.03
2019-06-08T22:37:42.381Z,71.09
2019-06-08T22:40:12.117Z,72.14
2019-06-08T22:42:41.675Z,73.36
2019-06-08T22:45:11.529Z,72.08
2019-06-08T22:47:41.195Z,72.90
2019-06-08T22:50:11.960Z,74.24
2019-06-08T22:52:41.573Z,70.64
2019-06-08T22:55:11.511Z,70.26
2019-06-08T22:57:41.127Z,72.07
2019-06-08T23:00:16.621Z,72.60
2019-06-08T23:02:42.698Z,70.30
2019-06-08T23:05:12.601Z,70.01
2019-06-08T23:07:42.199Z,70.66
2019-06-08T23:10:12.024Z,71.61
2019-06-08T23:12:41.649Z,71.17
2019-06-08T23:15:12.333Z,69.93
2019-06-08T23:17:41.911Z,71.00
2019-06-08T23:20:12.204Z,71.86
2019-06-08T23:22:41.754Z,70.27
2019-06-08T23:25:12.598Z,69.90
2019-06-08T23:27:42.186Z,71.18
2019-06-08T23:30:12.342Z,72.77
2019-06-08T23:32:41.932Z,70.80
2019-06-08T23:35:12.588Z,70.89
2019-06-08T23:37:42.133Z,73.05
2019-06-08T23:40:11.927Z,73.23
2019-06-08T23:42:41.484Z,74.30
2019-06-08T23:45:11.109Z,71.76
2019-06-08T23:47:40.768Z,72.95
2019-06-08T23:50:11.554Z,72.86
2019-06-08T23:52:41.476Z,73.13
2019-06-08T23:55:11.960Z,73.80
2019-06-08T23:57:41.803Z,72.77
